Karpathos, Greece
Current Conditions -  °F | °C
As of 5:50 AM on Thursday 23 Oct 2014 (Local Time) from LGRP Reporting Station
Thunderstorm Thunderstorm  
Wind Chill: 68°   Ceiling: 2500
Heat Index: 68°   Visibility: 5mi
Dew Point: 59°   Wind: 8mph
Humidity: 73%   Direction: 90°E
Pressure: 29.8"   Gusts: NA
Location:  35.5°N, 27.23°E
Report Text: LGRP 230250Z 09007KT 8000 -TSRA FEW010 FEW018CB BKN025 BKN18020/15 Q1009 TEMPO TSRA
Loading
Personal Weather Stations






























Interactive Weather Map
Tropical Storm Tracking
New forecast layout! Learn more

10-Day Weather Forecast

Advertisements
Track Severe Weather on mobile